Time;durP1;ratioP1;P1;durP2;ratioP2;P2;SDS_P1;SDS_P2;PMS_P1;PMS_P2;Temp;Humidity;BMP_temperature;BMP_pressure;BME280_temperature;BME280_humidity;BME280_pressure;Samples;Min_cycle;Max_cycle;Signal;HPM_P1;HPM_P2
2023/10/04 00:01:38;;;;;;;2.08;1.20;;;12.40;99.90;;;;;;5053271;28;20443;-67
2023/10/04 00:04:05;;;;;;;1.08;0.98;;;12.40;99.90;;;;;;5035058;28;20049;-67
2023/10/04 00:06:34;;;;;;;2.35;1.35;;;12.60;99.90;;;;;;5053067;28;20079;-67
2023/10/04 00:09:03;;;;;;;1.67;0.82;;;12.40;99.90;;;;;;5052890;28;20037;-67
2023/10/04 00:11:31;;;;;;;1.13;0.68;;;12.40;99.90;;;;;;5052805;28;20033;-67
2023/10/04 00:13:57;;;;;;;1.23;0.93;;;12.40;99.90;;;;;;5053086;28;20064;-66
2023/10/04 00:16:23;;;;;;;1.17;1.05;;;12.40;99.90;;;;;;5053041;28;20403;-66
2023/10/04 00:18:49;;;;;;;0.77;0.77;;;12.40;99.90;;;;;;5052968;28;20121;-67
2023/10/04 00:21:15;;;;;;;1.17;0.80;;;12.40;99.90;;;;;;5052986;28;20477;-66
2023/10/04 00:23:41;;;;;;;2.05;1.25;;;12.40;99.90;;;;;;5034804;28;20045;-67
2023/10/04 00:26:07;;;;;;;1.10;0.90;;;12.40;99.90;;;;;;5034967;28;20045;-66
2023/10/04 00:28:34;;;;;;;2.15;0.90;;;12.50;99.90;;;;;;5052988;28;20037;-66
2023/10/04 00:31:00;;;;;;;2.05;1.50;;;12.40;99.90;;;;;;5052994;28;20040;-67
2023/10/04 00:33:26;;;;;;;1.23;0.90;;;12.40;99.90;;;;;;5034654;28;20061;-66
2023/10/04 00:35:52;;;;;;;1.40;1.00;;;10.60;99.90;;;;;;5018372;28;20048;-67
2023/10/04 00:38:19;;;;;;;1.58;0.90;;;13.00;99.90;;;;;;5054635;28;20045;-66
2023/10/04 00:40:47;;;;;;;1.00;0.73;;;12.50;99.90;;;;;;5056921;28;20048;-66
2023/10/04 00:43:14;;;;;;;1.00;0.80;;;12.50;99.90;;;;;;5038868;28;20060;-66
2023/10/04 00:45:44;;;;;;;0.63;0.63;;;12.60;99.90;;;;;;5056803;28;20515;-66
2023/10/04 00:48:15;;;;;;;0.82;0.70;;;12.60;99.90;;;;;;5056522;28;20041;-66
2023/10/04 00:50:41;;;;;;;;;;;12.60;99.90;;;;;;5057210;28;20043;-66
2023/10/04 00:53:09;;;;;;;1.55;1.00;;;12.60;99.90;;;;;;5055608;28;19916;-66
2023/10/04 00:55:40;;;;;;;1.00;0.90;;;12.60;99.90;;;;;;5056367;28;20033;-66
2023/10/04 00:58:08;;;;;;;2.15;0.80;;;12.60;99.90;;;;;;5056721;28;20045;-66
2023/10/04 01:00:36;;;;;;;1.30;0.98;;;12.60;99.90;;;;;;5038473;28;20049;-65
2023/10/04 01:03:02;;;;;;;1.10;0.77;;;12.60;99.90;;;;;;5038465;28;20044;-65
2023/10/04 01:05:29;;;;;;;1.73;0.80;;;12.60;99.90;;;;;;5038306;28;20055;-66
2023/10/04 01:07:55;;;;;;;1.05;0.90;;;12.60;99.90;;;;;;5056514;28;20392;-66
2023/10/04 01:10:32;;;;;;;1.40;0.98;;;12.60;99.90;;;;;;5038337;28;20032;-66
2023/10/04 01:12:58;;;;;;;1.35;0.80;;;12.50;99.90;;;;;;5038241;28;20044;-65
2023/10/04 01:15:32;;;;;;;0.80;0.70;;;12.50;99.90;;;;;;5056309;28;20088;-65
2023/10/04 01:18:05;;;;;;;1.27;1.05;;;12.50;99.90;;;;;;5055928;28;20080;-65
2023/10/04 01:20:30;;;;;;;1.15;0.73;;;12.50;99.90;;;;;;5055943;28;20045;-66
2023/10/04 01:23:01;;;;;;;1.45;1.13;;;12.50;99.90;;;;;;5056226;28;20116;-66
2023/10/04 01:25:31;;;;;;;0.93;0.70;;;12.50;99.90;;;;;;5038244;28;20049;-66
2023/10/04 01:27:58;;;;;;;1.00;0.90;;;13.00;99.90;;;;;;5021716;28;20033;-67
2023/10/04 01:30:24;;;;;;;1.98;0.93;;;13.00;99.90;;;;;;5037923;28;20049;-66
2023/10/04 01:32:50;;;;;;;1.15;1.00;;;12.50;99.90;;;;;;5037891;28;20036;-65
2023/10/04 01:35:23;;;;;;;0.70;0.70;;;12.50;99.90;;;;;;5037648;28;20053;-65
2023/10/04 01:37:49;;;;;;;1.35;0.85;;;12.40;99.90;;;;;;5055725;28;20094;-65
2023/10/04 01:40:18;;;;;;;1.20;1.00;;;12.50;99.90;;;;;;5037696;28;20033;-65
2023/10/04 01:42:45;;;;;;;0.98;0.80;;;12.40;99.90;;;;;;5055838;28;20459;-66
2023/10/04 01:45:14;;;;;;;1.40;0.93;;;12.40;99.90;;;;;;5021181;28;20511;-66
2023/10/04 01:47:40;;;;;;;0.85;0.80;;;12.50;99.90;;;;;;5055822;28;20066;-66
2023/10/04 01:50:07;;;;;;;2.53;1.30;;;12.50;99.90;;;;;;5036660;28;20645;-67
2023/10/04 01:52:33;;;;;;;1.00;0.80;;;12.40;99.90;;;;;;5055646;28;20120;-67
2023/10/04 01:55:00;;;;;;;2.00;1.20;;;12.50;99.90;;;;;;5055546;28;20120;-67
2023/10/04 01:57:26;;;;;;;1.33;0.80;;;12.40;99.90;;;;;;5037285;28;20045;-67
2023/10/04 01:59:54;;;;;;;1.20;0.85;;;12.40;99.90;;;;;;5055183;28;20052;-67
2023/10/04 02:02:19;;;;;;;1.67;0.80;;;12.50;99.90;;;;;;5055408;28;20044;-67
2023/10/04 02:04:52;;;;;;;3.75;1.20;;;12.50;99.90;;;;;;5055293;28;20037;-67
2023/10/04 02:07:17;;;;;;;0.98;0.70;;;12.60;99.90;;;;;;5055044;28;20041;-67
2023/10/04 02:09:43;;;;;;;2.17;1.20;;;12.60;99.90;;;;;;5037219;28;20041;-67
2023/10/04 02:12:09;;;;;;;1.65;0.90;;;12.50;99.90;;;;;;5055264;28;20041;-67
2023/10/04 02:14:34;;;;;;;1.40;1.00;;;12.50;99.90;;;;;;5055168;28;20119;-67
2023/10/04 02:17:00;;;;;;;1.35;0.93;;;12.50;99.90;;;;;;5055162;28;20140;-67
2023/10/04 02:19:26;;;;;;;2.70;1.45;;;12.50;99.90;;;;;;5055101;28;20040;-67
2023/10/04 02:21:52;;;;;;;2.40;1.20;;;12.60;99.90;;;;;;5020730;28;20048;-67
2023/10/04 02:24:17;;;;;;;2.08;1.23;;;12.40;99.90;;;;;;5054972;28;20049;-67
2023/10/04 02:26:43;;;;;;;1.83;1.13;;;12.50;99.90;;;;;;5054925;28;20544;-67
2023/10/04 02:29:09;;;;;;;1.67;1.33;;;12.40;99.90;;;;;;5054983;28;20037;-67
2023/10/04 02:31:36;;;;;;;1.80;0.95;;;12.40;99.90;;;;;;5054638;28;20041;-67
2023/10/04 02:34:04;;;;;;;1.83;1.00;;;12.40;99.90;;;;;;5054538;28;20049;-67
2023/10/04 02:36:30;;;;;;;1.88;1.17;;;12.40;99.90;;;;;;5054556;28;20556;-67
2023/10/04 02:38:57;;;;;;;1.30;1.15;;;12.30;99.90;;;;;;5054805;28;20131;-67
2023/10/04 02:41:23;;;;;;;1.75;0.93;;;12.40;99.90;;;;;;5036637;28;20060;-67
2023/10/04 02:43:48;;;;;;;1.35;0.95;;;12.40;99.90;;;;;;5054331;28;20493;-67
2023/10/04 02:46:16;;;;;;;1.55;1.23;;;12.30;99.90;;;;;;5054716;28;20045;-66
2023/10/04 02:48:42;;;;;;;1.45;1.08;;;12.70;99.90;;;;;;5054568;28;20401;-66
2023/10/04 02:51:08;;;;;;;0.95;0.75;;;12.40;99.90;;;;;;5054497;28;20033;-65
2023/10/04 02:53:34;;;;;;;2.65;1.50;;;12.40;99.90;;;;;;5054528;28;20535;-65
2023/10/04 02:56:06;;;;;;;2.35;1.27;;;12.30;99.90;;;;;;5054494;28;20047;-66
2023/10/04 02:58:33;;;;;;;2.05;1.13;;;12.30;99.90;;;;;;5054511;28;20054;-66
2023/10/04 03:01:00;;;;;;;1.83;0.88;;;12.30;99.90;;;;;;5054097;28;20412;-66
2023/10/04 03:03:25;;;;;;;2.47;1.58;;;12.60;99.90;;;;;;5054298;28;20488;-66
2023/10/04 03:05:51;;;;;;;2.58;1.20;;;12.40;99.90;;;;;;5036064;28;20102;-66
2023/10/04 03:08:17;;;;;;;1.10;0.98;;;12.40;99.90;;;;;;5054319;28;20029;-66
2023/10/04 03:10:45;;;;;;;1.45;0.90;;;12.40;99.90;;;;;;5054198;28;20447;-65
2023/10/04 03:13:12;;;;;;;1.98;1.08;;;12.40;99.90;;;;;;5036325;28;20115;-66
2023/10/04 03:15:43;;;;;;;2.08;1.20;;;12.70;99.90;;;;;;5054097;28;20047;-66
2023/10/04 03:18:21;;;;;;;2.55;1.20;;;12.30;99.90;;;;;;5054115;28;20489;-65
2023/10/04 03:23:28;;;;;;;2.25;1.02;;;12.40;99.90;;;;;;5035795;28;20052;-65
2023/10/04 03:25:56;;;;;;;1.50;1.10;;;12.40;99.90;;;;;;5035801;28;20052;-65
2023/10/04 03:28:26;;;;;;;1.95;1.20;;;12.40;99.90;;;;;;5053612;28;20040;-65
2023/10/04 03:30:56;;;;;;;1.10;0.80;;;12.40;99.90;;;;;;5035903;28;20048;-65
2023/10/04 03:33:22;;;;;;;1.42;1.00;;;12.40;99.90;;;;;;5035781;28;20709;-65
2023/10/04 03:35:48;;;;;;;2.63;1.15;;;12.40;99.90;;;;;;5053364;28;20041;-65
2023/10/04 03:38:15;;;;;;;1.63;1.10;;;12.40;99.90;;;;;;5053672;28;20044;-65
2023/10/04 03:40:41;;;;;;;2.45;1.15;;;12.40;99.90;;;;;;5035539;28;20052;-66
2023/10/04 03:43:08;;;;;;;1.65;1.20;;;12.40;99.90;;;;;;5053572;28;20086;-65
2023/10/04 03:45:41;;;;;;;1.52;1.02;;;12.40;99.90;;;;;;5035270;28;20041;-65
2023/10/04 03:48:16;;;;;;;1.10;0.80;;;12.40;99.90;;;;;;5053513;28;20473;-65
2023/10/04 03:50:45;;;;;;;0.82;0.80;;;12.40;99.90;;;;;;5035289;28;20037;-65
2023/10/04 03:53:12;;;;;;;1.60;1.08;;;12.40;99.90;;;;;;5053467;28;20025;-65
2023/10/04 03:55:38;;;;;;;2.13;1.33;;;12.90;99.90;;;;;;5053344;28;20049;-65
2023/10/04 03:58:04;;;;;;;1.48;0.95;;;12.40;99.90;;;;;;5035636;28;20060;-65
2023/10/04 04:00:32;;;;;;;1.60;1.08;;;12.40;99.90;;;;;;5018713;28;20071;-65
2023/10/04 04:02:59;;;;;;;0.80;0.70;;;12.40;99.90;;;;;;5053321;28;20378;-65
2023/10/04 04:05:25;;;;;;;1.48;1.10;;;12.40;99.90;;;;;;5052818;28;20052;-65
2023/10/04 04:07:52;;;;;;;1.35;1.00;;;12.30;99.90;;;;;;5053058;28;20032;-66
2023/10/04 04:10:19;;;;;;;1.67;0.90;;;12.30;99.90;;;;;;5035344;28;20128;-65
2023/10/04 04:12:46;;;;;;;2.47;1.15;;;12.30;99.90;;;;;;5052231;28;20053;-65
2023/10/04 04:15:14;;;;;;;1.38;0.85;;;12.30;99.90;;;;;;5052797;28;20055;-65
2023/10/04 04:17:41;;;;;;;2.20;1.55;;;12.30;99.90;;;;;;5053054;28;20040;-65
2023/10/04 04:20:14;;;;;;;0.95;0.85;;;12.30;99.90;;;;;;5035226;28;20037;-66
2023/10/04 04:22:42;;;;;;;1.35;1.05;;;12.30;99.90;;;;;;5052985;28;20128;-65
2023/10/04 04:25:14;;;;;;;3.47;1.30;;;12.30;99.90;;;;;;5052903;28;20079;-65
2023/10/04 04:27:44;;;;;;;1.75;0.98;;;12.20;99.90;;;;;;5052680;28;20041;-65
2023/10/04 04:30:16;;;;;;;2.15;1.00;;;12.20;99.90;;;;;;5052697;28;20108;-65
2023/10/04 04:32:52;;;;;;;0.98;0.80;;;12.20;99.90;;;;;;5052655;28;20045;-65
2023/10/04 04:36:05;;;;;;;1.52;1.17;;;12.20;99.90;;;;;;5053005;28;20160;-65
2023/10/04 04:38:14;;;;;;;1.13;1.00;;;12.10;99.90;;;;;;5039128;28;20053;-65
2023/10/04 04:40:44;;;;;;;1.48;1.23;;;12.20;99.90;;;;;;5052819;28;20044;-66
2023/10/04 04:45:51;;;;;;;0.80;0.80;;;12.10;99.90;;;;;;5052747;28;20462;-65
2023/10/04 04:48:25;;;;;;;1.95;1.10;;;12.10;99.90;;;;;;5052652;28;20492;-65
2023/10/04 04:50:57;;;;;;;1.95;1.30;;;12.10;99.90;;;;;;5052742;28;20121;-65
2023/10/04 04:53:24;;;;;;;1.88;1.05;;;12.10;99.90;;;;;;5052679;28;20485;-65
2023/10/04 04:55:50;;;;;;;1.05;0.95;;;12.40;99.90;;;;;;5034627;28;20049;-66
2023/10/04 04:58:18;;;;;;;2.10;1.25;;;12.10;99.90;;;;;;5052416;28;20041;-65
2023/10/04 05:00:44;;;;;;;2.35;1.10;;;12.10;99.90;;;;;;5052677;28;20091;-65
2023/10/04 05:03:13;;;;;;;2.75;1.45;;;12.10;99.90;;;;;;5052670;28;20037;-65
2023/10/04 05:05:40;;;;;;;1.08;1.00;;;12.10;99.90;;;;;;5052530;28;20037;-65
2023/10/04 05:08:06;;;;;;;1.98;1.00;;;12.10;99.90;;;;;;5052635;28;20060;-66
2023/10/04 05:10:38;;;;;;;1.80;1.40;;;12.10;99.90;;;;;;5034363;28;20492;-66
2023/10/04 05:13:07;;;;;;;2.78;1.42;;;12.10;99.90;;;;;;5034780;28;20586;-66
2023/10/04 05:15:35;;;;;;;1.25;1.15;;;12.00;99.90;;;;;;5052494;28;20043;-66
2023/10/04 05:18:04;;;;;;;2.17;1.58;;;12.10;99.90;;;;;;5052660;28;20411;-65
2023/10/04 05:20:31;;;;;;;1.65;1.00;;;12.00;99.90;;;;;;5052487;28;20500;-65
2023/10/04 05:22:59;;;;;;;1.65;1.27;;;12.00;99.90;;;;;;5052455;28;20041;-65
2023/10/04 05:25:27;;;;;;;2.08;0.90;;;12.00;99.90;;;;;;5055618;28;20080;-65
2023/10/04 05:28:00;;;;;;;2.22;1.38;;;12.10;99.90;;;;;;5038070;28;20048;-65
2023/10/04 05:30:26;;;;;;;2.53;1.05;;;12.10;99.90;;;;;;5055793;28;20072;-65
2023/10/04 05:32:51;;;;;;;1.23;0.90;;;12.10;99.90;;;;;;5055794;28;20492;-65
2023/10/04 05:35:18;;;;;;;2.05;1.23;;;12.00;99.90;;;;;;5055520;28;20057;-70
2023/10/04 05:37:44;;;;;;;1.83;1.27;;;12.10;99.90;;;;;;5037776;28;20052;-66
2023/10/04 05:40:17;;;;;;;1.40;1.25;;;12.10;99.90;;;;;;5055942;28;20465;-65
2023/10/04 05:42:46;;;;;;;1.63;1.00;;;12.10;99.90;;;;;;5037727;28;20049;-68
2023/10/04 05:45:12;;;;;;;1.63;1.10;;;12.10;99.90;;;;;;5055452;28;20155;-69
2023/10/04 05:47:38;;;;;;;3.92;1.88;;;12.20;99.90;;;;;;5037609;28;20040;-66
2023/10/04 05:50:05;;;;;;;2.22;1.55;;;12.20;99.90;;;;;;5021414;28;20129;-67
2023/10/04 05:52:34;;;;;;;2.20;1.30;;;12.20;99.90;;;;;;5037515;28;20051;-66
2023/10/04 05:55:00;;;;;;;2.90;1.35;;;12.00;99.90;;;;;;5055644;28;20464;-67
2023/10/04 05:57:28;;;;;;;2.90;1.27;;;12.20;99.90;;;;;;5037404;28;20053;-71
2023/10/04 05:59:54;;;;;;;1.67;1.20;;;12.20;99.90;;;;;;5037430;28;20086;-69
2023/10/04 06:02:19;;;;;;;1.60;1.08;;;12.30;99.90;;;;;;5037360;28;20040;-66
2023/10/04 06:04:47;;;;;;;1.83;1.33;;;12.30;99.90;;;;;;5055345;28;20045;-65
2023/10/04 06:07:13;;;;;;;2.53;1.30;;;12.30;99.90;;;;;;5055399;28;20044;-68
2023/10/04 06:09:42;;;;;;;1.35;1.00;;;12.30;99.90;;;;;;5055373;28;20688;-64
2023/10/04 06:12:11;;;;;;;1.77;1.08;;;12.30;99.90;;;;;;5055346;28;20045;-64
2023/10/04 06:14:37;;;;;;;2.10;1.10;;;12.30;99.90;;;;;;5037027;28;20563;-64
2023/10/04 06:17:04;;;;;;;2.53;1.27;;;12.30;99.90;;;;;;5055344;28;20040;-65
2023/10/04 06:19:30;;;;;;;1.70;1.23;;;12.30;99.90;;;;;;5055183;28;20040;-65
2023/10/04 06:21:56;;;;;;;2.05;1.08;;;12.30;99.90;;;;;;5055185;28;20469;-64
2023/10/04 06:24:22;;;;;;;1.33;0.98;;;12.40;99.90;;;;;;5055119;28;20382;-64
2023/10/04 06:26:48;;;;;;;2.47;1.20;;;12.40;99.90;;;;;;5055014;28;20055;-65
2023/10/04 06:29:14;;;;;;;1.83;0.88;;;12.40;99.90;;;;;;5055129;28;20109;-65
2023/10/04 06:31:40;;;;;;;2.05;1.13;;;12.50;99.90;;;;;;5054724;28;20480;-66
2023/10/04 06:34:06;;;;;;;1.15;0.90;;;12.50;99.90;;;;;;5054600;28;20049;-65
2023/10/04 06:36:31;;;;;;;2.10;1.50;;;12.60;99.90;;;;;;5053925;28;20487;-65
2023/10/04 06:38:57;;;;;;;1.05;0.95;;;12.60;99.90;;;;;;5054871;28;20049;-65
2023/10/04 06:41:25;;;;;;;1.27;1.00;;;12.70;99.90;;;;;;5054849;28;20387;-65
2023/10/04 06:43:51;;;;;;;1.35;0.90;;;12.70;99.90;;;;;;5054760;28;20052;-65
2023/10/04 06:46:17;;;;;;;3.03;1.67;;;12.70;99.90;;;;;;5054619;28;20408;-65
2023/10/04 06:48:43;;;;;;;2.42;1.35;;;12.80;99.90;;;;;;5036736;28;20516;-65
2023/10/04 06:51:09;;;;;;;3.92;1.88;;;12.90;99.90;;;;;;5054619;28;20112;-65
2023/10/04 06:53:35;;;;;;;1.42;1.13;;;13.00;99.90;;;;;;5054589;28;20124;-65
2023/10/04 06:56:01;;;;;;;4.35;1.40;;;13.00;99.90;;;;;;5054479;28;20080;-65
2023/10/04 06:58:28;;;;;;;1.27;0.90;;;13.00;99.90;;;;;;5036540;28;20080;-65
2023/10/04 07:00:56;;;;;;;1.80;1.20;;;13.10;99.90;;;;;;5054378;28;20378;-65
2023/10/04 07:03:22;;;;;;;0.95;0.95;;;13.10;99.90;;;;;;5054064;28;20041;-65
2023/10/04 07:05:49;;;;;;;2.30;1.10;;;13.10;99.90;;;;;;5054203;28;20518;-65
2023/10/04 07:08:16;;;;;;;1.55;1.25;;;13.10;99.90;;;;;;5054339;28;20047;-65
2023/10/04 07:10:42;;;;;;;1.80;1.00;;;13.20;99.90;;;;;;5054162;28;20044;-65
2023/10/04 07:13:08;;;;;;;2.10;1.17;;;13.30;99.90;;;;;;5054160;28;20480;-65
2023/10/04 07:15:41;;;;;;;1.67;1.20;;;13.30;99.90;;;;;;5054035;28;20044;-65
2023/10/04 07:18:10;;;;;;;2.10;0.93;;;13.40;99.90;;;;;;5053941;28;20073;-67
2023/10/04 07:20:36;;;;;;;4.30;1.65;;;13.40;99.90;;;;;;5036416;28;20044;-66
2023/10/04 07:23:05;;;;;;;1.65;1.00;;;13.80;99.90;;;;;;5053988;28;20037;-65
2023/10/04 07:25:34;;;;;;;;;;;13.60;99.90;;;;;;5054186;28;20041;-65
2023/10/04 07:28:02;;;;;;;1.63;1.00;;;13.50;99.90;;;;;;5054107;28;19916;-65
2023/10/04 07:30:29;;;;;;;1.98;1.10;;;13.60;99.90;;;;;;5035718;28;20098;-65
2023/10/04 07:32:55;;;;;;;1.75;1.17;;;13.70;99.90;;;;;;5053608;28;20033;-65
2023/10/04 07:35:25;;;;;;;2.97;1.40;;;13.70;99.90;;;;;;5035610;28;20114;-65
2023/10/04 07:37:51;;;;;;;1.50;1.25;;;13.70;99.90;;;;;;5053734;28;20049;-72
2023/10/04 07:40:17;;;;;;;1.27;0.75;;;14.30;99.90;;;;;;5035574;28;20091;-66
2023/10/04 07:42:47;;;;;;;2.17;1.13;;;13.90;99.90;;;;;;5035505;28;20067;-66
2023/10/04 07:45:16;;;;;;;2.35;1.15;;;14.00;99.90;;;;;;5053211;28;20033;-66
2023/10/04 07:47:43;;;;;;;2.28;1.15;;;14.00;99.90;;;;;;5052509;28;20091;-66
2023/10/04 07:50:13;;;;;;;2.15;1.30;;;14.90;99.90;;;;;;5035368;28;20416;-66
2023/10/04 07:52:40;;;;;;;1.00;0.83;;;;;;;;;;5035286;28;20036;-66
2023/10/04 07:55:19;;;;;;;2.05;1.42;;;14.20;99.90;;;;;;5035261;28;20287;-66
2023/10/04 07:57:46;;;;;;;1.70;1.10;;;14.30;99.90;;;;;;5035267;28;20044;-66
2023/10/04 08:00:15;;;;;;;2.90;1.55;;;14.30;99.90;;;;;;5052961;28;20041;-66
2023/10/04 08:02:46;;;;;;;2.03;1.10;;;14.30;99.90;;;;;;5053249;28;20041;-66
2023/10/04 08:05:19;;;;;;;2.47;1.25;;;14.30;99.90;;;;;;5035240;28;20431;-66
2023/10/04 08:07:47;;;;;;;1.80;1.17;;;14.40;99.90;;;;;;5053176;28;20037;-66
2023/10/04 08:10:13;;;;;;;1.80;1.15;;;14.40;99.90;;;;;;5034957;28;20447;-66
2023/10/04 08:12:41;;;;;;;3.85;1.55;;;14.50;99.90;;;;;;5053179;28;20041;-66
2023/10/04 08:15:08;;;;;;;1.40;0.90;;;14.50;99.90;;;;;;5034982;28;20127;-66
2023/10/04 08:17:34;;;;;;;1.73;1.13;;;14.60;99.90;;;;;;5052714;28;20404;-66
2023/10/04 08:20:00;;;;;;;1.73;0.95;;;14.60;99.90;;;;;;5053091;28;20040;-66
2023/10/04 08:22:25;;;;;;;2.10;1.15;;;14.70;99.90;;;;;;5034874;28;20095;-66
2023/10/04 08:24:53;;;;;;;2.28;1.40;;;14.70;99.90;;;;;;5052892;28;20392;-66
2023/10/04 08:27:18;;;;;;;1.23;0.82;;;14.70;99.90;;;;;;5053044;28;20029;-65
2023/10/04 08:29:44;;;;;;;2.58;1.50;;;14.80;99.90;;;;;;5052962;28;20412;-65
2023/10/04 08:32:10;;;;;;;2.58;1.10;;;15.10;99.90;;;;;;5052939;28;20051;-65
2023/10/04 08:34:37;;;;;;;2.13;1.20;;;15.00;99.90;;;;;;5052564;28;20059;-65
2023/10/04 08:37:03;;;;;;;2.60;1.45;;;15.80;99.90;;;;;;5052615;28;20041;-66
2023/10/04 08:39:29;;;;;;;2.25;1.33;;;15.20;99.90;;;;;;5053061;28;20125;-66
2023/10/04 08:41:55;;;;;;;1.80;1.10;;;15.30;99.90;;;;;;5034996;28;20056;-66
2023/10/04 08:44:21;;;;;;;2.60;1.42;;;15.40;99.90;;;;;;5052846;28;20389;-66
2023/10/04 08:46:47;;;;;;;3.42;1.58;;;15.30;99.90;;;;;;5034663;28;20041;-66
2023/10/04 08:49:15;;;;;;;3.10;1.15;;;15.30;99.90;;;;;;5052886;28;20047;-66
2023/10/04 08:51:59;;;;;;;3.65;1.73;;;15.20;99.90;;;;;;5052439;28;20041;-66
2023/10/04 08:54:27;;;;;;;2.67;1.60;;;15.20;99.90;;;;;;5052728;28;20381;-66
2023/10/04 08:57:14;;;;;;;1.67;0.98;;;15.20;99.90;;;;;;5052736;28;20041;-66
2023/10/04 08:59:40;;;;;;;1.52;1.05;;;15.20;99.90;;;;;;5036746;28;20045;-66
2023/10/04 09:02:13;;;;;;;1.58;1.10;;;15.30;99.90;;;;;;5022028;28;20041;-66
2023/10/04 09:04:39;;;;;;;3.35;1.55;;;15.30;99.90;;;;;;5056504;28;20488;-66
2023/10/04 09:07:08;;;;;;;4.28;1.30;;;15.30;99.90;;;;;;5038679;28;20052;-66
2023/10/04 09:09:40;;;;;;;2.88;1.20;;;15.30;99.90;;;;;;5056496;28;20060;-66
2023/10/04 09:12:09;;;;;;;2.67;1.65;;;15.40;99.90;;;;;;5038385;28;20086;-66
2023/10/04 09:14:40;;;;;;;2.10;1.17;;;15.40;99.90;;;;;;5038171;28;20041;-66
2023/10/04 09:17:14;;;;;;;3.63;1.48;;;15.90;99.90;;;;;;5056349;28;20043;-66
2023/10/04 09:19:41;;;;;;;1.80;1.13;;;15.50;99.90;;;;;;5056272;28;20045;-66
2023/10/04 09:22:08;;;;;;;2.17;1.20;;;15.50;99.90;;;;;;5038403;28;20044;-66
2023/10/04 09:24:56;;;;;;;1.10;0.90;;;15.50;99.90;;;;;;5055944;28;20040;-66
2023/10/04 09:27:22;;;;;;;2.42;1.40;;;15.60;99.90;;;;;;5038290;28;20051;-66
2023/10/04 09:29:49;;;;;;;1.35;1.13;;;15.60;99.90;;;;;;5056163;28;20496;-66
2023/10/04 09:32:16;;;;;;;1.65;1.20;;;15.70;99.90;;;;;;5056140;28;20530;-66
2023/10/04 09:34:58;;;;;;;3.50;1.23;;;15.90;99.90;;;;;;5055594;28;20049;-66
2023/10/04 09:37:23;;;;;;;2.80;1.20;;;15.80;99.90;;;;;;5056025;28;20045;-68
2023/10/04 09:39:49;;;;;;;1.38;0.88;;;15.90;99.90;;;;;;5055651;28;20128;-66
2023/10/04 09:42:14;;;;;;;2.53;1.35;;;15.90;99.90;;;;;;5055961;28;20036;-66
2023/10/04 09:44:40;;;;;;;3.45;1.67;;;15.90;99.90;;;;;;5055509;28;20130;-66
2023/10/04 09:47:09;;;;;;;2.00;1.25;;;15.90;99.90;;;;;;5055786;28;20123;-67
2023/10/04 09:49:37;;;;;;;1.38;1.15;;;15.90;99.90;;;;;;5037935;28;20394;-66
2023/10/04 09:52:14;;;;;;;2.15;1.17;;;16.00;99.90;;;;;;5037600;28;20045;-66
2023/10/04 09:54:40;;;;;;;1.67;1.02;;;16.20;99.90;;;;;;5055705;28;20569;-66
2023/10/04 09:57:07;;;;;;;1.55;1.08;;;16.30;99.90;;;;;;5037670;28;20044;-65
2023/10/04 09:59:38;;;;;;;1.02;0.90;;;16.40;99.90;;;;;;5037779;28;20500;-65
2023/10/04 10:02:07;;;;;;;3.20;1.35;;;16.50;99.90;;;;;;5055601;28;20489;-65
2023/10/04 10:04:36;;;;;;;2.03;1.20;;;16.50;99.90;;;;;;5020853;28;20052;-65
2023/10/04 10:07:11;;;;;;;3.38;1.73;;;16.60;99.90;;;;;;5055048;28;20048;-65
2023/10/04 10:09:43;;;;;;;2.60;1.50;;;16.60;99.90;;;;;;5055309;28;20535;-66
2023/10/04 10:12:10;;;;;;;1.05;0.90;;;16.80;99.90;;;;;;5036380;28;20069;-65
2023/10/04 10:14:37;;;;;;;1.80;1.17;;;16.60;99.90;;;;;;5037290;28;20116;-66
2023/10/04 10:17:03;;;;;;;1.75;1.08;;;16.70;99.90;;;;;;5054936;28;20048;-66
2023/10/04 10:19:29;;;;;;;2.75;1.33;;;16.70;99.90;;;;;;5054878;28;20055;-66
2023/10/04 10:22:15;;;;;;;1.70;1.13;;;16.70;98.80;;;;;;5054809;28;20037;-66
2023/10/04 10:24:48;;;;;;;1.90;1.40;;;16.70;94.70;;;;;;5054987;28;20392;-66
2023/10/04 10:27:18;;;;;;;2.50;1.23;;;16.60;99.40;;;;;;5054827;28;20072;-66
2023/10/04 10:29:45;;;;;;;1.33;0.90;;;16.60;99.90;;;;;;5036951;28;20120;-66
2023/10/04 10:32:16;;;;;;;2.92;1.60;;;16.50;98.60;;;;;;5055442;28;20112;-66
2023/10/04 10:34:42;;;;;;;1.70;1.30;;;16.40;98.30;;;;;;5036632;28;20394;-66
2023/10/04 10:37:19;;;;;;;1.30;1.20;;;16.40;99.60;;;;;;5036927;28;20037;-66
2023/10/04 10:39:56;;;;;;;2.72;1.38;;;16.40;98.40;;;;;;5036740;28;20037;-66
2023/10/04 10:42:22;;;;;;;1.50;1.10;;;16.50;99.60;;;;;;5036681;28;20040;-66
2023/10/04 10:44:50;;;;;;;1.40;1.10;;;16.50;98.60;;;;;;5036839;28;20137;-66
2023/10/04 10:47:22;;;;;;;2.00;1.33;;;16.50;99.90;;;;;;5054394;28;20090;-66
2023/10/04 10:49:56;;;;;;;2.97;1.67;;;16.50;99.90;;;;;;5054617;28;20366;-66
2023/10/04 10:52:26;;;;;;;1.77;1.15;;;16.50;99.90;;;;;;5054577;28;20041;-66
2023/10/04 10:54:52;;;;;;;2.92;1.38;;;16.50;99.90;;;;;;5054482;28;20041;-66
2023/10/04 10:57:20;;;;;;;2.10;1.20;;;16.50;99.90;;;;;;5036291;28;20049;-66
2023/10/04 10:59:46;;;;;;;2.38;1.30;;;16.60;99.90;;;;;;5054592;28;20045;-67
2023/10/04 11:02:12;;;;;;;1.55;1.30;;;16.60;99.90;;;;;;5054131;28;20040;-67
2023/10/04 11:04:38;;;;;;;1.95;1.38;;;16.60;99.90;;;;;;5036169;28;20076;-67
2023/10/04 11:07:06;;;;;;;2.00;1.48;;;16.60;99.90;;;;;;5054227;28;20051;-66
2023/10/04 11:09:37;;;;;;;1.75;1.10;;;16.50;98.70;;;;;;5054369;28;20405;-67
2023/10/04 11:12:07;;;;;;;2.58;1.58;;;16.60;99.90;;;;;;5054239;28;20029;-67
2023/10/04 11:14:34;;;;;;;2.38;1.30;;;16.60;99.90;;;;;;5036387;28;20037;-66
2023/10/04 11:17:01;;;;;;;2.40;1.52;;;16.60;99.30;;;;;;5053844;28;20210;-66
2023/10/04 11:19:26;;;;;;;1.98;1.38;;;16.60;99.90;;;;;;5054262;28;20148;-65
2023/10/04 11:21:52;;;;;;;1.90;1.40;;;16.60;99.90;;;;;;5054138;28;20064;-65
2023/10/04 11:24:20;;;;;;;3.10;1.65;;;16.60;99.60;;;;;;5053957;28;20044;-65
2023/10/04 11:26:46;;;;;;;1.63;1.25;;;16.60;99.70;;;;;;5053787;28;20091;-65
2023/10/04 11:29:13;;;;;;;4.40;1.88;;;16.60;99.20;;;;;;5053848;28;20068;-65
2023/10/04 11:31:39;;;;;;;1.80;1.30;;;16.60;97.10;;;;;;5053487;28;20072;-65
2023/10/04 11:34:04;;;;;;;1.50;1.10;;;16.50;99.00;;;;;;5053523;28;20087;-65
2023/10/04 11:36:34;;;;;;;1.33;1.05;;;16.50;99.30;;;;;;5053683;28;20461;-65
2023/10/04 11:39:00;;;;;;;1.60;1.15;;;16.60;98.70;;;;;;5053695;28;20036;-67
2023/10/04 11:41:29;;;;;;;2.95;1.60;;;16.60;99.10;;;;;;5035435;28;20386;-65
2023/10/04 11:44:02;;;;;;;1.50;1.10;;;16.70;99.10;;;;;;5053603;28;20048;-65
2023/10/04 11:46:29;;;;;;;2.45;1.55;;;16.80;97.80;;;;;;5035416;28;20045;-65
2023/10/04 11:49:11;;;;;;;2.22;1.60;;;16.80;98.50;;;;;;5053557;28;20066;-65
2023/10/04 11:51:39;;;;;;;1.83;1.25;;;16.90;96.50;;;;;;5053462;28;20033;-66
2023/10/04 11:54:05;;;;;;;1.85;1.50;;;16.90;95.80;;;;;;5053482;28;20119;-65
2023/10/04 11:56:39;;;;;;;2.50;1.45;;;16.90;97.40;;;;;;5053339;28;20456;-65
2023/10/04 11:59:05;;;;;;;1.60;1.45;;;17.00;95.60;;;;;;5053396;28;20485;-65
2023/10/04 12:01:30;;;;;;;2.78;1.30;;;17.00;95.00;;;;;;5035519;28;20068;-65
2023/10/04 12:03:56;;;;;;;2.42;1.50;;;17.00;87.70;;;;;;5035115;28;20123;-65
2023/10/04 12:06:30;;;;;;;1.58;1.20;;;17.00;92.80;;;;;;5052974;28;20472;-65
2023/10/04 12:08:59;;;;;;;2.85;1.70;;;17.10;85.40;;;;;;5035526;28;20128;-66
2023/10/04 12:11:33;;;;;;;1.67;1.23;;;17.10;92.60;;;;;;5053176;28;20091;-66
2023/10/04 12:13:59;;;;;;;1.80;1.42;;;17.10;90.60;;;;;;5053130;28;20055;-66
2023/10/04 12:16:25;;;;;;;2.80;1.30;;;17.10;89.60;;;;;;5035023;28;20041;-67
2023/10/04 12:18:51;;;;;;;1.45;1.17;;;17.10;79.60;;;;;;5035246;28;20045;-65
2023/10/04 12:21:17;;;;;;;2.00;1.05;;;17.20;83.00;;;;;;5053085;28;20047;-65
2023/10/04 12:23:43;;;;;;;1.77;1.42;;;17.00;84.80;;;;;;5052779;28;20037;-66
2023/10/04 12:26:09;;;;;;;3.85;1.63;;;17.10;88.10;;;;;;5034643;28;20135;-66
2023/10/04 12:28:37;;;;;;;2.72;1.45;;;17.00;87.70;;;;;;5052962;28;20090;-66
2023/10/04 12:31:05;;;;;;;1.45;1.10;;;17.00;84.90;;;;;;5052602;28;20052;-67
2023/10/04 12:33:30;;;;;;;2.08;1.30;;;16.90;83.10;;;;;;5054213;28;20057;-67
2023/10/04 12:35:57;;;;;;;2.80;1.38;;;17.00;87.10;;;;;;5059243;28;20067;-67
2023/10/04 12:38:25;;;;;;;2.78;1.48;;;17.00;90.30;;;;;;5059594;28;20041;-67
2023/10/04 12:40:51;;;;;;;1.95;1.40;;;17.00;90.50;;;;;;5059523;28;20044;-67
2023/10/04 12:43:17;;;;;;;1.88;1.30;;;17.00;90.60;;;;;;5041430;28;20115;-67
2023/10/04 12:45:44;;;;;;;2.25;1.13;;;17.10;90.20;;;;;;5041214;28;20155;-68
2023/10/04 12:48:16;;;;;;;2.80;1.30;;;17.10;90.30;;;;;;5059154;28;20040;-67
2023/10/04 12:50:45;;;;;;;2.00;1.42;;;17.20;88.60;;;;;;5041497;28;20037;-67
2023/10/04 12:53:11;;;;;;;1.52;1.25;;;17.10;88.20;;;;;;5041278;28;20106;-67
2023/10/04 12:55:37;;;;;;;1.30;1.20;;;17.30;86.10;;;;;;5041196;28;20452;-67
2023/10/04 12:58:04;;;;;;;2.67;1.58;;;17.10;88.80;;;;;;5059059;28;20048;-67